Time;durP1;ratioP1;P1;durP2;ratioP2;P2;SDS_P1;SDS_P2;PMS_P1;PMS_P2;Temp;Humidity;BMP_temperature;BMP_pressure;BME280_temperature;BME280_humidity;BME280_pressure;Samples;Min_cycle;Max_cycle;Signal;HPM_P1;HPM_P2
2023/07/12 00:00:53;;;;;;;7.15;6.45;;;15.00;99.90;;;;;;5009250;28;20037;-77
2023/07/12 00:03:18;;;;;;;7.45;6.00;;;14.90;99.90;;;;;;5010358;28;20042;-77
2023/07/12 00:05:46;;;;;;;7.38;6.20;;;15.00;99.90;;;;;;5012542;28;20360;-77
2023/07/12 00:08:23;;;;;;;5.78;5.28;;;14.90;99.90;;;;;;5012736;28;20398;-77
2023/07/12 00:10:50;;;;;;;6.82;5.50;;;14.90;99.90;;;;;;5013968;28;20026;-77
2023/07/12 00:13:17;;;;;;;7.00;6.00;;;14.90;99.90;;;;;;5013845;28;20033;-77
2023/07/12 00:15:44;;;;;;;9.82;5.72;;;14.90;99.90;;;;;;5012504;28;20382;-77
2023/07/12 00:18:21;;;;;;;6.43;5.72;;;14.90;99.90;;;;;;5013855;28;20125;-77
2023/07/12 00:20:49;;;;;;;9.02;6.03;;;14.90;99.90;;;;;;5012525;28;20026;-77
2023/07/12 00:23:16;;;;;;;6.78;5.82;;;14.80;99.90;;;;;;5013743;28;20083;-77
2023/07/12 00:25:43;;;;;;;7.95;6.60;;;14.80;99.90;;;;;;5013797;28;20413;-77
2023/07/12 00:28:21;;;;;;;6.43;5.60;;;14.80;99.90;;;;;;5012410;28;20026;-77
2023/07/12 00:30:48;;;;;;;6.32;5.72;;;14.80;99.90;;;;;;5013723;28;20037;-77
2023/07/12 00:33:14;;;;;;;6.03;5.47;;;14.70;99.90;;;;;;5013548;28;20038;-77
2023/07/12 00:35:42;;;;;;;7.10;5.22;;;14.60;99.90;;;;;;5012239;28;20018;-78
2023/07/12 00:38:22;;;;;;;6.93;5.65;;;14.50;99.90;;;;;;5013464;28;20026;-77
2023/07/12 00:41:19;;;;;;;7.03;5.82;;;14.50;99.90;;;;;;5012095;28;20033;-78
2023/07/12 00:44:04;;;;;;;6.30;5.70;;;14.50;99.90;;;;;;5012050;28;20046;-77
2023/07/12 00:46:47;;;;;;;6.45;5.68;;;14.40;99.90;;;;;;5013374;28;20033;-78
2023/07/12 00:49:14;;;;;;;6.75;6.03;;;14.40;99.90;;;;;;5013284;28;20018;-78
2023/07/12 00:51:51;;;;;;;6.13;5.63;;;14.50;99.90;;;;;;5013348;28;20026;-76
2023/07/12 00:54:20;;;;;;;7.43;6.00;;;14.50;99.90;;;;;;5013237;28;20506;-76
2023/07/12 00:56:46;;;;;;;8.02;5.97;;;14.50;99.90;;;;;;5013134;28;20071;-79
2023/07/12 00:59:26;;;;;;;8.15;6.43;;;14.50;99.90;;;;;;5011900;28;20052;-78
2023/07/12 01:01:56;;;;;;;7.18;6.13;;;14.50;99.90;;;;;;5013086;28;20075;-78
2023/07/12 01:04:26;;;;;;;6.85;6.15;;;14.50;99.90;;;;;;5011665;28;20037;-77
2023/07/12 01:06:52;;;;;;;7.20;6.50;;;14.50;99.90;;;;;;5011764;28;20033;-78
2023/07/12 01:09:18;;;;;;;6.68;5.97;;;14.60;99.90;;;;;;5012999;28;20030;-77
2023/07/12 01:11:45;;;;;;;7.80;6.03;;;14.50;99.90;;;;;;5013039;28;20026;-78
2023/07/12 01:14:16;;;;;;;8.20;6.45;;;14.50;99.90;;;;;;5011621;28;20018;-78
2023/07/12 01:16:47;;;;;;;9.60;6.15;;;14.50;99.90;;;;;;5012481;28;20049;-77
2023/07/12 01:19:13;;;;;;;7.45;5.97;;;14.50;99.90;;;;;;5012852;28;20067;-77
2023/07/12 01:21:48;;;;;;;7.10;6.40;;;14.50;99.90;;;;;;5011593;28;20378;-78
2023/07/12 01:24:14;;;;;;;7.05;6.32;;;14.50;99.90;;;;;;5011400;28;20030;-77
2023/07/12 01:26:43;;;;;;;7.70;6.30;;;14.50;99.90;;;;;;5011561;28;20546;-77
2023/07/12 01:29:09;;;;;;;7.35;5.85;;;14.50;99.90;;;;;;5012616;28;20446;-77
2023/07/12 01:31:35;;;;;;;6.97;6.28;;;14.50;99.90;;;;;;5012701;28;20018;-77
2023/07/12 01:34:01;;;;;;;6.97;5.85;;;14.40;99.90;;;;;;5011420;28;20026;-77
2023/07/12 01:36:29;;;;;;;6.88;6.18;;;14.40;99.90;;;;;;5011374;28;20025;-78
2023/07/12 01:38:57;;;;;;;7.20;6.50;;;14.40;99.90;;;;;;5011308;28;20026;-77
2023/07/12 01:41:24;;;;;;;7.57;6.03;;;14.30;99.90;;;;;;5011228;28;20398;-77
2023/07/12 01:43:49;;;;;;;8.50;6.32;;;14.30;99.90;;;;;;5012419;28;20033;-78
2023/07/12 01:46:15;;;;;;;7.85;6.20;;;14.30;99.90;;;;;;5012594;28;20030;-78
2023/07/12 01:48:41;;;;;;;7.43;5.88;;;14.30;99.90;;;;;;5012440;28;20513;-77
2023/07/12 01:51:07;;;;;;;6.68;5.95;;;14.30;99.90;;;;;;5012456;28;20391;-77
2023/07/12 01:53:36;;;;;;;6.68;5.97;;;14.30;99.90;;;;;;5010830;28;20089;-77
2023/07/12 01:56:03;;;;;;;7.18;6.00;;;14.30;99.90;;;;;;5011026;28;20032;-77
2023/07/12 01:58:29;;;;;;;6.80;6.10;;;14.20;99.90;;;;;;5010967;28;20109;-76
2023/07/12 02:00:55;;;;;;;6.00;5.50;;;14.30;99.90;;;;;;5012343;28;20072;-77
2023/07/12 02:03:21;;;;;;;6.95;5.57;;;14.20;99.90;;;;;;5012061;28;20099;-78
2023/07/12 02:05:47;;;;;;;6.78;6.13;;;14.30;99.90;;;;;;5010765;28;20022;-77
2023/07/12 02:08:13;;;;;;;7.18;6.43;;;14.20;99.90;;;;;;5012145;28;20033;-77
2023/07/12 02:10:39;;;;;;;7.53;6.18;;;14.30;99.90;;;;;;5010911;28;20022;-77
2023/07/12 02:13:05;;;;;;;7.15;6.45;;;14.30;99.90;;;;;;5011959;28;20483;-77
2023/07/12 02:15:31;;;;;;;6.90;6.00;;;14.20;99.90;;;;;;5011964;28;20022;-77
2023/07/12 02:17:56;;;;;;;7.03;6.03;;;14.20;99.90;;;;;;5010594;28;20018;-77
2023/07/12 02:20:22;;;;;;;6.35;5.60;;;14.20;99.90;;;;;;5010640;28;20022;-79
2023/07/12 02:22:49;;;;;;;7.47;5.72;;;14.20;99.90;;;;;;5011867;28;20383;-78
2023/07/12 02:25:16;;;;;;;8.23;6.60;;;14.20;99.90;;;;;;5010700;28;20033;-78
2023/07/12 02:27:44;;;;;;;8.98;5.65;;;14.20;99.90;;;;;;5009690;28;20113;-78
2023/07/12 02:30:12;;;;;;;7.35;6.05;;;14.20;99.90;;;;;;5010578;28;20020;-78
2023/07/12 02:32:38;;;;;;;8.18;6.57;;;14.10;99.90;;;;;;5010481;28;20030;-77
2023/07/12 02:35:04;;;;;;;11.15;6.43;;;14.10;99.90;;;;;;5011616;28;20048;-79
2023/07/12 02:37:30;;;;;;;7.90;6.07;;;14.10;99.90;;;;;;5011828;28;20030;-78
2023/07/12 02:39:56;;;;;;;6.72;6.03;;;14.10;99.90;;;;;;5011668;28;20026;-78
2023/07/12 02:42:21;;;;;;;8.38;6.03;;;14.10;99.90;;;;;;5010414;28;20479;-78
2023/07/12 02:44:47;;;;;;;6.40;5.72;;;14.10;99.90;;;;;;5011537;28;20090;-78
2023/07/12 02:47:13;;;;;;;7.55;5.72;;;14.00;99.90;;;;;;5011525;28;20033;-77
2023/07/12 02:49:39;;;;;;;8.25;6.88;;;14.10;99.90;;;;;;5024205;28;20360;-78
2023/07/12 02:52:07;;;;;;;7.75;6.15;;;14.00;99.90;;;;;;5028647;28;20025;-77
2023/07/12 02:54:33;;;;;;;7.40;6.03;;;14.10;99.90;;;;;;5030178;28;20510;-78
2023/07/12 02:56:59;;;;;;;6.78;6.07;;;14.00;99.90;;;;;;5029819;28;20370;-78
2023/07/12 02:59:26;;;;;;;6.85;5.88;;;14.00;99.90;;;;;;5030992;28;20029;-78
2023/07/12 03:01:52;;;;;;;12.05;7.28;;;14.00;99.90;;;;;;5031185;28;20096;-78
2023/07/12 03:04:18;;;;;;;8.73;6.25;;;14.00;99.90;;;;;;5030827;28;20037;-77
2023/07/12 03:06:44;;;;;;;8.10;6.38;;;14.10;99.90;;;;;;5029628;28;20018;-78
2023/07/12 03:09:10;;;;;;;7.88;6.10;;;14.10;99.90;;;;;;5030931;28;20030;-78
2023/07/12 03:11:36;;;;;;;7.60;6.13;;;14.10;99.90;;;;;;5030933;28;20026;-78
2023/07/12 03:14:02;;;;;;;8.30;6.78;;;14.20;99.90;;;;;;5029524;28;20022;-79
2023/07/12 03:16:28;;;;;;;8.20;6.57;;;14.30;99.90;;;;;;5029442;28;20034;-79
2023/07/12 03:18:56;;;;;;;7.60;6.68;;;14.30;99.90;;;;;;5030611;28;20557;-79
2023/07/12 03:21:21;;;;;;;8.07;6.40;;;14.40;99.90;;;;;;5029526;28;20104;-77
2023/07/12 03:23:48;;;;;;;7.63;6.40;;;14.50;99.90;;;;;;5029255;28;20567;-79
2023/07/12 03:26:14;;;;;;;8.98;6.28;;;14.60;99.90;;;;;;5030540;28;20017;-78
2023/07/12 03:28:39;;;;;;;7.32;6.10;;;14.70;99.90;;;;;;5030212;28;20022;-77
2023/07/12 03:31:13;;;;;;;7.25;6.15;;;14.80;99.90;;;;;;5030553;28;20028;-79
2023/07/12 03:33:39;;;;;;;7.88;6.03;;;14.90;99.90;;;;;;5030496;28;20025;-79
2023/07/12 03:36:05;;;;;;;8.40;6.30;;;15.20;99.90;;;;;;5029304;28;20029;-78
2023/07/12 03:38:31;;;;;;;7.13;5.78;;;15.40;99.90;;;;;;5030290;28;20034;-79
2023/07/12 03:41:01;;;;;;;6.43;5.82;;;15.70;99.90;;;;;;5030568;28;20109;-80
2023/07/12 03:43:26;;;;;;;8.25;5.35;;;15.90;99.90;;;;;;5029023;28;20101;-78
2023/07/12 03:45:53;;;;;;;7.35;5.50;;;16.20;99.90;;;;;;5030109;28;20025;-79
2023/07/12 03:48:19;;;;;;;8.25;5.47;;;16.50;99.90;;;;;;5030301;28;20029;-80
2023/07/12 03:50:47;;;;;;;7.90;5.57;;;16.80;99.90;;;;;;5030458;28;20416;-79
2023/07/12 03:53:14;;;;;;;9.73;5.80;;;17.00;99.90;;;;;;5028935;28;20060;-78
2023/07/12 03:55:41;;;;;;;6.35;4.72;;;17.30;99.90;;;;;;5029130;28;20106;-79
2023/07/12 03:58:09;;;;;;;6.68;5.40;;;17.50;97.80;;;;;;5029148;28;20022;-78
2023/07/12 04:00:38;;;;;;;6.03;5.43;;;17.70;94.50;;;;;;5029022;28;20041;-79
2023/07/12 04:03:04;;;;;;;7.00;5.60;;;17.90;94.80;;;;;;5028772;28;20063;-79
2023/07/12 04:05:29;;;;;;;5.82;5.03;;;18.10;93.80;;;;;;5028937;28;20479;-80
2023/07/12 04:07:56;;;;;;;9.25;5.40;;;18.40;95.00;;;;;;5030027;28;20017;-80
2023/07/12 04:10:22;;;;;;;9.32;4.80;;;18.60;90.90;;;;;;5030141;28;20066;-79
2023/07/12 04:12:48;;;;;;;8.65;4.95;;;18.90;87.70;;;;;;5028850;28;20026;-79
2023/07/12 04:15:13;;;;;;;4.88;4.30;;;19.10;88.50;;;;;;5028820;28;20031;-80
2023/07/12 04:17:39;;;;;;;7.43;4.40;;;19.40;81.10;;;;;;5028746;28;20029;-79
2023/07/12 04:20:06;;;;;;;8.13;5.22;;;19.60;77.90;;;;;;5029995;28;20026;-80
2023/07/12 04:22:31;;;;;;;7.07;4.82;;;19.80;77.80;;;;;;5028928;28;20068;-80
2023/07/12 04:24:57;;;;;;;5.15;4.32;;;19.80;73.30;;;;;;5029802;28;20068;-80
2023/07/12 04:27:23;;;;;;;5.60;3.53;;;19.80;71.90;;;;;;5029924;28;20054;-78
2023/07/12 04:29:48;;;;;;;6.00;4.10;;;19.80;71.70;;;;;;5028670;28;20017;-78
2023/07/12 04:32:14;;;;;;;5.22;4.15;;;19.90;71.70;;;;;;5028490;28;20021;-79
2023/07/12 04:34:40;;;;;;;4.28;3.90;;;20.00;71.50;;;;;;5028660;28;20150;-79
2023/07/12 04:37:06;;;;;;;5.25;3.65;;;20.20;71.50;;;;;;5028531;28;20615;-78
2023/07/12 04:39:32;;;;;;;6.07;3.70;;;20.30;70.20;;;;;;5029720;28;20045;-78
2023/07/12 04:41:58;;;;;;;5.43;4.18;;;20.40;69.00;;;;;;5029716;28;20014;-78
2023/07/12 04:44:25;;;;;;;5.43;3.88;;;20.50;69.40;;;;;;5029492;28;20371;-79
2023/07/12 04:46:51;;;;;;;5.80;3.92;;;20.70;69.60;;;;;;5029723;28;20014;-80
2023/07/12 04:49:16;;;;;;;6.50;4.07;;;20.70;69.90;;;;;;5029565;28;20078;-78
2023/07/12 04:51:42;;;;;;;6.28;4.50;;;20.80;70.20;;;;;;5030524;28;20113;-78
2023/07/12 04:54:07;;;;;;;4.97;3.63;;;20.90;70.70;;;;;;5032941;28;20053;-79
2023/07/12 04:56:33;;;;;;;4.60;3.97;;;21.10;70.60;;;;;;5031612;28;20032;-79
2023/07/12 04:58:59;;;;;;;4.28;3.75;;;21.20;71.00;;;;;;5032837;28;20052;-78
2023/07/12 05:01:24;;;;;;;6.05;3.70;;;21.20;70.20;;;;;;5031668;28;20033;-79
2023/07/12 05:03:50;;;;;;;5.95;3.97;;;21.30;69.40;;;;;;5032776;28;20490;-78
2023/07/12 05:06:15;;;;;;;4.40;3.58;;;21.40;68.90;;;;;;5032857;28;20033;-78
2023/07/12 05:08:41;;;;;;;5.00;3.90;;;21.40;67.60;;;;;;5032669;28;20022;-79
2023/07/12 05:11:07;;;;;;;3.58;3.28;;;21.40;66.60;;;;;;5031729;28;20470;-79
2023/07/12 05:13:33;;;;;;;4.18;3.40;;;21.40;66.80;;;;;;5031265;28;20413;-78
2023/07/12 05:15:59;;;;;;;5.80;3.67;;;21.40;65.30;;;;;;5031365;28;20025;-78
2023/07/12 05:18:26;;;;;;;4.30;3.85;;;21.50;67.40;;;;;;5032572;28;20029;-78
2023/07/12 05:20:54;;;;;;;7.03;4.28;;;21.50;68.30;;;;;;5031357;28;20420;-78
2023/07/12 05:23:20;;;;;;;4.82;3.45;;;21.60;67.20;;;;;;5031324;28;20040;-78
2023/07/12 05:25:57;;;;;;;5.70;3.70;;;21.70;67.00;;;;;;5029365;28;20049;-78
2023/07/12 05:28:22;;;;;;;3.90;3.60;;;21.70;68.60;;;;;;5025871;28;20067;-78
2023/07/12 05:30:48;;;;;;;9.23;4.65;;;21.70;68.50;;;;;;5022225;28;20049;-78
2023/07/12 05:33:14;;;;;;;13.65;4.15;;;21.80;68.90;;;;;;5012458;28;20028;-77
2023/07/12 05:35:40;;;;;;;19.05;5.45;;;21.90;68.30;;;;;;5012476;28;20038;-78
2023/07/12 05:38:06;;;;;;;5.95;3.78;;;21.90;67.20;;;;;;5011043;28;20470;-79
2023/07/12 05:40:32;;;;;;;9.85;4.50;;;22.00;66.90;;;;;;5010938;28;20041;-78
2023/07/12 05:42:58;;;;;;;9.07;4.38;;;22.20;66.70;;;;;;5011054;28;20030;-79
2023/07/12 05:45:25;;;;;;;19.13;5.93;;;22.20;66.40;;;;;;5010138;28;20030;-79
2023/07/12 05:47:51;;;;;;;7.68;4.53;;;22.40;66.60;;;;;;5009581;28;20510;-77
2023/07/12 05:50:19;;;;;;;8.13;4.78;;;22.40;64.80;;;;;;5009483;28;20030;-78
2023/07/12 05:52:46;;;;;;;9.50;4.03;;;22.50;65.30;;;;;;5009598;28;20022;-81
2023/07/12 05:55:14;;;;;;;11.50;5.50;;;22.60;64.70;;;;;;5009604;28;20034;-78
2023/07/12 05:57:39;;;;;;;6.47;3.85;;;22.60;63.30;;;;;;5008864;28;20022;-77
2023/07/12 06:00:08;;;;;;;14.82;5.15;;;22.60;63.80;;;;;;5008804;28;20026;-77
2023/07/12 06:02:33;;;;;;;29.48;7.22;;;22.70;63.90;;;;;;5013512;28;20022;-79
2023/07/12 06:04:59;;;;;;;48.08;8.98;;;22.70;64.70;;;;;;5020033;28;20395;-79
2023/07/12 06:07:25;;;;;;;31.95;7.15;;;22.70;64.90;;;;;;5022366;28;20462;-77
2023/07/12 06:09:50;;;;;;;12.77;4.78;;;22.70;65.60;;;;;;5020488;28;20037;-77
2023/07/12 06:12:16;;;;;;;5.57;4.68;;;22.60;65.80;;;;;;5021028;28;20036;-78
2023/07/12 06:14:41;;;;;;;6.75;4.35;;;22.60;66.80;;;;;;5021009;28;20071;-78
2023/07/12 06:17:07;;;;;;;7.72;4.75;;;22.60;67.50;;;;;;5023899;28;20033;-78
2023/07/12 06:19:33;;;;;;;7.03;4.72;;;22.60;67.00;;;;;;5022534;28;20100;-78
2023/07/12 06:21:59;;;;;;;11.23;4.65;;;22.70;67.70;;;;;;5017997;28;20108;-77
2023/07/12 06:24:24;;;;;;;25.00;6.90;;;22.80;66.20;;;;;;5019637;28;20137;-78
2023/07/12 06:26:50;;;;;;;11.98;4.97;;;22.80;67.10;;;;;;5016881;28;20037;-78
2023/07/12 06:29:16;;;;;;;9.13;5.03;;;23.00;68.30;;;;;;5017219;28;20030;-79
2023/07/12 06:31:43;;;;;;;6.13;5.53;;;23.10;67.20;;;;;;5019620;28;20110;-78
2023/07/12 06:34:09;;;;;;;5.47;4.30;;;23.30;64.30;;;;;;5027076;28;20112;-78
2023/07/12 06:36:35;;;;;;;12.65;4.97;;;23.50;64.60;;;;;;5028427;28;20025;-78
2023/07/12 06:39:01;;;;;;;5.93;4.72;;;23.80;65.80;;;;;;5029564;27;20038;-78
2023/07/12 06:41:27;;;;;;;6.00;4.60;;;24.00;62.70;;;;;;5029773;28;20053;-78
2023/07/12 06:43:52;;;;;;;12.18;5.20;;;24.10;61.00;;;;;;5029538;27;20490;-78
2023/07/12 06:46:18;;;;;;;5.18;4.68;;;24.30;62.60;;;;;;5028826;28;20066;-78
2023/07/12 06:48:44;;;;;;;7.28;5.47;;;24.30;62.00;;;;;;5030160;27;20486;-78
2023/07/12 06:51:10;;;;;;;5.97;5.40;;;24.40;62.50;;;;;;5028735;28;20033;-78
2023/07/12 06:53:35;;;;;;;6.53;4.40;;;24.40;61.60;;;;;;5028292;28;20057;-78
2023/07/12 06:56:01;;;;;;;7.80;5.43;;;24.40;62.70;;;;;;5029924;28;20029;-78
2023/07/12 06:58:27;;;;;;;8.02;4.88;;;24.50;62.50;;;;;;5029352;28;20026;-78
2023/07/12 07:00:53;;;;;;;12.18;5.38;;;24.50;63.10;;;;;;5028776;28;20032;-79
2023/07/12 07:03:18;;;;;;;6.07;5.47;;;24.60;63.40;;;;;;5028483;28;20021;-79
2023/07/12 07:05:46;;;;;;;9.18;5.35;;;24.80;63.40;;;;;;5029968;28;20498;-80
2023/07/12 07:08:14;;;;;;;9.00;5.20;;;25.00;63.30;;;;;;5029885;28;20021;-79
2023/07/12 07:10:39;;;;;;;8.60;5.80;;;25.30;63.60;;;;;;5028302;28;20040;-79
2023/07/12 07:13:05;;;;;;;7.65;5.40;;;25.40;62.20;;;;;;5020833;28;20088;-79
2023/07/12 07:15:31;;;;;;;6.93;5.00;;;25.70;60.90;;;;;;5018017;28;20117;-79
2023/07/12 07:17:57;;;;;;;10.00;6.10;;;26.00;61.20;;;;;;5020062;28;20112;-79
2023/07/12 07:20:23;;;;;;;10.52;6.03;;;26.00;59.40;;;;;;5018510;28;20109;-79
2023/07/12 07:22:49;;;;;;;10.95;6.00;;;26.00;59.70;;;;;;5017304;28;20061;-79
2023/07/12 07:25:15;;;;;;;9.57;5.97;;;26.10;60.20;;;;;;5019661;27;20041;-79
2023/07/12 07:27:40;;;;;;;9.93;5.80;;;26.30;59.40;;;;;;5024888;28;20071;-79
2023/07/12 07:30:06;;;;;;;8.52;5.55;;;26.40;58.80;;;;;;5023791;28;20038;-79
2023/07/12 07:32:32;;;;;;;9.52;6.93;;;26.40;60.40;;;;;;5010928;28;20144;-79
2023/07/12 07:34:58;;;;;;;7.85;5.70;;;26.60;60.10;;;;;;5018259;27;20061;-78
2023/07/12 07:37:23;;;;;;;9.68;7.22;;;27.00;61.40;;;;;;5016620;28;20435;-79
2023/07/12 07:39:49;;;;;;;8.20;6.30;;;27.20;57.40;;;;;;5018190;27;20097;-79
2023/07/12 07:42:15;;;;;;;10.93;6.80;;;27.30;56.10;;;;;;5016441;28;20580;-80
2023/07/12 07:44:40;;;;;;;9.60;5.95;;;27.20;56.10;;;;;;5020016;27;20479;-80
2023/07/12 07:47:08;;;;;;;12.63;7.95;;;27.30;56.20;;;;;;5019236;28;20018;-80
2023/07/12 07:49:34;;;;;;;12.18;6.78;;;27.50;56.10;;;;;;5017836;28;20049;-79
2023/07/12 07:51:59;;;;;;;10.70;7.63;;;27.70;53.80;;;;;;5011324;28;20360;-79
2023/07/12 07:54:25;;;;;;;7.70;6.57;;;27.80;53.80;;;;;;5029038;28;20041;-79
2023/07/12 07:56:51;;;;;;;12.18;7.35;;;27.50;53.50;;;;;;5027787;28;20519;-80
2023/07/12 07:59:16;;;;;;;9.60;6.78;;;27.50;54.50;;;;;;5017673;28;20451;-80
2023/07/12 08:01:42;;;;;;;8.70;6.40;;;27.60;55.40;;;;;;5021103;28;20038;-79
2023/07/12 08:04:09;;;;;;;9.55;6.97;;;27.70;54.80;;;;;;5028917;28;20041;-79
2023/07/12 08:06:35;;;;;;;7.82;7.13;;;27.70;54.50;;;;;;5027590;28;20022;-80
2023/07/12 08:09:01;;;;;;;8.15;7.10;;;27.50;54.30;;;;;;5029380;28;20100;-80
2023/07/12 08:11:27;;;;;;;9.55;6.90;;;27.60;54.50;;;;;;5028459;28;20538;-79
2023/07/12 08:13:52;;;;;;;9.82;6.22;;;27.90;54.70;;;;;;5029419;28;20032;-79
2023/07/12 08:16:18;;;;;;;7.57;6.75;;;28.30;53.90;;;;;;5028861;28;20029;-79
2023/07/12 08:18:43;;;;;;;7.25;6.53;;;28.40;54.00;;;;;;5028002;28;20025;-79
2023/07/12 08:21:11;;;;;;;8.00;6.60;;;28.50;51.90;;;;;;5027600;28;20034;-80
2023/07/12 08:23:37;;;;;;;9.57;6.93;;;28.70;51.60;;;;;;5028551;28;20038;-79
2023/07/12 08:26:02;;;;;;;8.07;6.28;;;28.80;52.30;;;;;;5028398;28;20468;-79
2023/07/12 08:28:28;;;;;;;8.10;6.75;;;29.10;52.50;;;;;;5031966;28;20044;-79
2023/07/12 08:30:53;;;;;;;9.55;6.75;;;29.20;51.90;;;;;;5030985;28;20075;-81
2023/07/12 08:33:19;;;;;;;7.80;7.00;;;29.30;51.60;;;;;;5030844;28;20049;-80
2023/07/12 08:35:45;;;;;;;7.88;6.82;;;29.40;52.20;;;;;;5030808;28;20161;-80
2023/07/12 08:38:11;;;;;;;14.20;7.15;;;29.20;52.20;;;;;;5030299;28;20026;-81
2023/07/12 08:40:44;;;;;;;8.13;7.22;;;29.30;52.20;;;;;;5022090;28;20033;-81
2023/07/12 08:43:15;;;;;;;10.18;6.85;;;29.30;51.40;;;;;;5016710;28;20465;-81
2023/07/12 08:45:43;;;;;;;11.35;7.32;;;29.50;50.90;;;;;;5031005;28;20109;-80
2023/07/12 08:48:20;;;;;;;10.05;7.40;;;29.60;51.40;;;;;;5030511;28;20493;-80
2023/07/12 08:50:48;;;;;;;10.10;6.95;;;29.80;51.50;;;;;;5033469;28;20474;-80
2023/07/12 08:53:26;;;;;;;7.18;6.47;;;30.00;52.50;;;;;;5031093;28;20056;-81
2023/07/12 08:55:53;;;;;;;14.75;8.13;;;29.90;51.00;;;;;;5029896;28;20018;-80
2023/07/12 08:58:43;;;;;;;7.75;6.80;;;29.80;50.80;;;;;;5029933;28;20033;-80
2023/07/12 09:01:15;;;;;;;7.28;6.65;;;29.40;51.80;;;;;;5031652;28;20048;-80
2023/07/12 09:03:41;;;;;;;;;;;29.40;51.90;;;;;;5031429;28;20120;-80
2023/07/12 09:06:15;;;;;;;10.35;7.30;;;29.40;52.40;;;;;;5030935;28;20029;-80
2023/07/12 09:08:45;;;;;;;8.40;7.03;;;29.40;53.20;;;;;;5032018;28;20128;-81
2023/07/12 09:11:20;;;;;;;7.50;6.47;;;29.20;52.90;;;;;;5033006;28;20049;-80
2023/07/12 09:13:46;;;;;;;7.50;6.80;;;29.00;54.10;;;;;;5031596;28;20394;-80
2023/07/12 09:16:34;;;;;;;7.75;6.78;;;28.80;54.60;;;;;;5031910;28;20382;-80
2023/07/12 09:19:15;;;;;;;7.72;6.93;;;28.50;53.90;;;;;;5032862;28;20029;-80
2023/07/12 09:21:46;;;;;;;9.50;7.57;;;28.20;54.60;;;;;;5032688;28;20022;-80
2023/07/12 09:24:20;;;;;;;7.90;6.95;;;27.90;54.50;;;;;;5031551;28;20033;-80
2023/07/12 09:26:46;;;;;;;7.72;6.60;;;27.70;55.50;;;;;;5032660;28;20347;-80
2023/07/12 09:29:24;;;;;;;8.07;7.10;;;27.60;56.70;;;;;;5032620;28;20089;-80
2023/07/12 09:31:51;;;;;;;7.97;6.80;;;27.40;56.50;;;;;;5031369;28;20116;-80
2023/07/12 09:34:19;;;;;;;7.68;6.93;;;27.40;57.00;;;;;;5032713;28;20025;-80
2023/07/12 09:36:44;;;;;;;9.80;6.88;;;27.40;56.90;;;;;;5031068;28;20117;-80
2023/07/12 09:39:11;;;;;;;8.45;6.95;;;27.50;57.40;;;;;;5032440;28;20431;-80
2023/07/12 09:41:50;;;;;;;8.82;6.95;;;27.60;57.90;;;;;;5032560;28;20032;-79
2023/07/12 09:44:16;;;;;;;8.48;7.10;;;27.60;57.20;;;;;;5030844;28;20072;-80
2023/07/12 09:47:00;;;;;;;9.43;7.68;;;27.80;56.90;;;;;;5032289;28;20378;-80
2023/07/12 09:49:37;;;;;;;8.88;6.70;;;27.80;56.60;;;;;;5032059;28;20378;-80
2023/07/12 09:52:31;;;;;;;15.15;7.28;;;27.80;56.80;;;;;;5032459;28;20125;-80
2023/07/12 09:55:11;;;;;;;8.35;7.55;;;27.60;56.50;;;;;;5010024;28;20121;-80
2023/07/12 09:58:12;;;;;;;8.68;6.78;;;27.30;56.60;;;;;;5031268;28;20017;-80
2023/07/12 10:00:54;;;;;;;11.48;7.38;;;27.00;57.70;;;;;;5019581;28;20505;-80
2023/07/12 10:03:22;;;;;;;;;;;26.80;57.50;;;;;;5031250;28;20049;-80
2023/07/12 10:06:03;;;;;;;10.15;7.50;;;26.70;58.40;;;;;;5030994;28;19905;-80
2023/07/12 10:08:46;;;;;;;11.15;7.28;;;26.60;59.30;;;;;;5030935;28;20026;-79
2023/07/12 10:11:26;;;;;;;9.68;8.60;;;26.30;61.10;;;;;;5032356;28;20024;-80
2023/07/12 10:13:58;;;;;;;11.98;8.27;;;26.10;62.40;;;;;;5030824;28;20013;-80
2023/07/12 10:16:34;;;;;;;11.23;8.45;;;25.70;70.80;;;;;;5032060;28;20025;-80
2023/07/12 10:19:11;;;;;;;14.20;9.02;;;25.50;74.00;;;;;;5030678;28;20025;-80
2023/07/12 10:21:38;;;;;;;12.18;8.57;;;25.50;78.00;;;;;;5032304;28;20478;-79
2023/07/12 10:24:06;;;;;;;11.50;8.80;;;25.80;84.40;;;;;;5030507;28;20868;-80
2023/07/12 10:26:34;;;;;;;10.63;8.23;;;26.10;81.10;;;;;;5031862;28;20109;-79
2023/07/12 10:29:09;;;;;;;12.77;8.07;;;26.50;83.40;;;;;;5030468;28;20030;-80
2023/07/12 10:31:55;;;;;;;11.35;8.68;;;26.70;79.80;;;;;;5031965;28;20025;-79
2023/07/12 10:34:42;;;;;;;11.68;8.43;;;26.50;75.60;;;;;;5030853;28;20057;-80
2023/07/12 10:37:24;;;;;;;12.15;7.90;;;26.50;76.70;;;;;;5031462;28;20022;-80
2023/07/12 10:39:50;;;;;;;10.77;8.20;;;26.60;76.50;;;;;;5030252;28;20034;-79
2023/07/12 10:42:18;;;;;;;10.50;8.57;;;27.00;75.40;;;;;;5031490;28;20023;-79
2023/07/12 10:44:52;;;;;;;11.02;8.20;;;27.00;71.20;;;;;;5031341;28;20044;-80
2023/07/12 10:47:20;;;;;;;10.80;7.82;;;27.20;73.70;;;;;;5030277;28;20124;-79
2023/07/12 10:49:56;;;;;;;11.30;9.65;;;27.70;68.90;;;;;;5029969;28;20064;-80
2023/07/12 10:52:27;;;;;;;11.90;9.35;;;28.00;69.20;;;;;;5011130;28;20026;-81
2023/07/12 10:55:02;;;;;;;13.45;10.70;;;28.10;66.50;;;;;;5010803;28;20069;-80
2023/07/12 10:57:48;;;;;;;15.98;9.80;;;28.00;66.10;;;;;;5011175;28;20022;-80
2023/07/12 11:00:17;;;;;;;11.98;10.50;;;27.80;64.50;;;;;;5025434;28;20086;-81
2023/07/12 11:02:57;;;;;;;13.60;10.07;;;27.40;65.10;;;;;;5011095;28;20108;-80
2023/07/12 11:05:46;;;;;;;16.25;10.65;;;27.20;66.60;;;;;;5010928;28;20030;-80
2023/07/12 11:08:30;;;;;;;18.38;11.43;;;26.90;67.40;;;;;;5010912;28;20026;-80
2023/07/12 11:10:59;;;;;;;14.63;10.77;;;26.80;67.60;;;;;;5010877;28;20022;-80
2023/07/12 11:13:32;;;;;;;15.60;9.70;;;26.80;69.60;;;;;;5025716;28;20390;-80
2023/07/12 11:16:06;;;;;;;14.95;9.38;;;26.70;70.20;;;;;;5011022;28;20057;-81
2023/07/12 11:18:35;;;;;;;15.30;9.30;;;26.30;68.60;;;;;;5010923;28;20109;-79
2023/07/12 11:21:04;;;;;;;11.20;8.88;;;26.10;68.90;;;;;;5010849;28;20022;-82
2023/07/12 11:23:45;;;;;;;14.02;9.70;;;26.10;70.10;;;;;;5025892;28;20038;-80
2023/07/12 11:26:27;;;;;;;10.98;8.70;;;26.00;70.60;;;;;;5010962;28;20059;-80
2023/07/12 11:29:13;;;;;;;12.02;9.25;;;26.10;71.40;;;;;;5025485;28;20046;-80
2023/07/12 11:31:41;;;;;;;13.93;9.48;;;26.20;71.50;;;;;;5010515;28;20399;-80
2023/07/12 11:34:14;;;;;;;13.90;9.85;;;26.20;71.80;;;;;;4993106;28;20028;-80
2023/07/12 11:36:41;;;;;;;15.02;10.90;;;26.10;72.30;;;;;;5025804;28;20510;-81
2023/07/12 11:39:22;;;;;;;14.50;10.93;;;26.10;72.30;;;;;;5010598;28;20026;-81
2023/07/12 11:41:57;;;;;;;16.60;9.82;;;26.00;73.20;;;;;;5010331;28;20432;-81
2023/07/12 11:44:25;;;;;;;12.95;9.60;;;26.00;73.90;;;;;;5009759;28;20403;-80
2023/07/12 11:46:52;;;;;;;12.32;9.48;;;26.00;74.10;;;;;;5009129;28;20429;-81
2023/07/12 11:49:20;;;;;;;13.55;9.88;;;25.90;73.90;;;;;;5010395;28;20105;-81
2023/07/12 11:51:52;;;;;;;16.63;11.10;;;25.90;73.30;;;;;;5013025;28;20390;-80
2023/07/12 11:54:27;;;;;;;12.77;9.23;;;25.80;73.80;;;;;;5017795;28;20065;-81
2023/07/12 11:57:02;;;;;;;15.27;9.80;;;25.70;73.90;;;;;;5017475;28;20386;-81
2023/07/12 11:59:31;;;;;;;12.43;9.73;;;25.70;74.40;;;;;;5028502;28;20513;-81
2023/07/12 12:01:57;;;;;;;11.85;9.43;;;25.70;74.90;;;;;;5033551;28;20390;-81
2023/07/12 12:04:26;;;;;;;9.98;8.98;;;25.70;74.30;;;;;;5032157;28;20037;-81
2023/07/12 12:06:55;;;;;;;11.32;10.00;;;25.70;75.40;;;;;;5033386;28;20026;-81
2023/07/12 12:09:34;;;;;;;10.05;8.43;;;25.70;76.00;;;;;;5033263;28;20040;-81
2023/07/12 12:12:02;;;;;;;10.48;9.43;;;25.70;75.50;;;;;;5032216;28;20022;-82
2023/07/12 12:14:31;;;;;;;12.57;10.13;;;25.80;76.60;;;;;;5031560;28;20025;-81
2023/07/12 12:17:03;;;;;;;13.63;9.25;;;25.80;77.00;;;;;;5032127;28;20056;-81
2023/07/12 12:19:30;;;;;;;10.05;8.30;;;25.80;77.70;;;;;;5014871;28;20026;-81
2023/07/12 12:22:12;;;;;;;10.15;8.77;;;25.70;76.30;;;;;;5021758;28;20481;-81
2023/07/12 12:24:45;;;;;;;12.90;9.02;;;25.70;76.90;;;;;;5031921;28;20470;-81
2023/07/12 12:27:21;;;;;;;10.27;8.88;;;25.70;76.30;;;;;;5027682;27;20030;-82
2023/07/12 12:29:50;;;;;;;13.63;9.52;;;25.80;75.40;;;;;;5022615;28;20026;-81
2023/07/12 12:32:19;;;;;;;11.98;8.70;;;25.70;76.80;;;;;;5030276;28;20022;-81
2023/07/12 12:34:52;;;;;;;10.23;9.23;;;25.90;73.50;;;;;;5030621;28;20026;-81
2023/07/12 12:37:28;;;;;;;13.25;8.95;;;26.00;74.10;;;;;;5030565;28;20018;-81
2023/07/12 12:40:04;;;;;;;9.25;8.35;;;26.00;73.10;;;;;;5032052;28;20025;-81
2023/07/12 12:42:30;;;;;;;11.35;8.27;;;26.00;73.60;;;;;;5029443;28;20610;-81
2023/07/12 12:44:57;;;;;;;9.05;7.53;;;26.10;73.10;;;;;;5030571;28;20033;-80
2023/07/12 12:47:30;;;;;;;9.75;7.32;;;26.30;73.50;;;;;;5030692;28;20043;-81
2023/07/12 12:49:57;;;;;;;8.35;6.20;;;26.70;72.10;;;;;;5030934;28;20136;-80
2023/07/12 12:52:37;;;;;;;7.85;6.30;;;27.00;64.40;;;;;;5030495;28;20034;-81